Culebra, PR (00775)

3:34 PM AST on July 29, 2014 (GMT -0400)
Al's Hilltop (KPRCULEB2) Elev 250 ft | 18.30 °N, 65.29 °W | Change Station

Current weather conditions updated 24 seconds ago

Clear
Clear
83.8 °F
Feels Like 92 °F
N
9.0
Wind Variable Wind from East
Gusts 12.0 mph

Today is forecast to be nearly the same temperature as yesterday. Late night thunderstorms tomorrow night.

Today
High -- | Low -- °F
--% Chance of Precip.
Yesterday
High -- | Low -- °F
Precip. -- in
5:58 AM 6:56 PM
Waxing Crescent, 7% visible
Pressure 30.01 in
Visibility 10.0 miles
Clouds Clear
Heat Index 92 °F
Dew Point 75 °F
Humidity 75%
Rainfall 0.00 in
Snow Depth Not available.
UV 9 out of 12
Pollen Not available.
Air Quality Not available.
Flu Activity Not available.
METAR TIST 291853Z 15010KT 10SM CLR 31/24 A3001 RMK AO2 SLP162 T03060244

More Conditions Fewer Conditions

Pressure 30.01 in
Visibility 10.0 miles
Clouds Clear
Heat Index 92 °F
Dew Point 75 °F
Humidity 75%
Rainfall 0.00 in
Snow Depth Not available.
UV 9 out of 12
Pollen Not available.
Air Quality Not available.
Flu Activity Not available.
METAR TIST 291853Z 15010KT 10SM CLR 31/24 A3001 RMK AO2 SLP162 T03060244

More Conditions Fewer Conditions

10-Day Weather Forecast

Almanac

Astronomy

Jul. 29, 2014 Rise Set
Actual Time 5:58 AM AST 6:56 PM AST
Civil Twilight 5:34 AM AST 7:20 PM AST
Nautical Twilight 5:07 AM AST 7:47 PM AST
Astronomical Twilight 4:39 AM AST 8:15 PM AST
Moon 8:03 AM AST 8:39 PM AST
Length of Visible Light 13h 45m
Length of Day
12h 58m
Tomorrow will be 0m 43s shorter.
Waxing Crescent, 7% of the Moon is Illuminated
Today
Waxing Crescent
Aug 3
First Quarter
Aug 10
Full
Aug 17
Last Quarter
Aug 25
New

Community

WunderPhotos

Upload Photos

1,738,834 photos uploaded!

WunderBlogs® & News

Nearby

Snow Depth

Station Depth Elevation
No new snow has been reported.

Earthquake Activity

City Distance Mag. Time & Date
No recent earthquake activity has been reported nearby.
Minimum magnitude displayed is 2.5.

Coastal Water Temperatures

Place Temperature
Yabucoa Harbor, PR 87.1 °F
Esperanza, PR 84.9 °F
Charlotte Amalie, VI 87.1 °F

Nearby Weather Stations

Station Location Temp. Heat Index Dew Point Humidity Wind Precip. Elev Updated Type
Al's Hilltop, Culebra, PR 83.8 °F 92 °F 75 °F 75% East  at  9.0 mph 0.00 in / hr 250 ft 3:34 PM AST Normal
Manejo de Emergencias, Ceiba, PR 76.4 °F 77 °F 74 °F 93% West  at  4.0 mph 0.30 in / hr 95 ft 3:33 PM AST Normal
NorthSide, St Thomas 87.4 °F 96 °F 74 °F 64% NNE  at  2.0 mph 0.00 in / hr 728 ft 3:34 PM AST Rapid Fire

Show More Stations Show Fewer Stations